Time;durP1;ratioP1;P1;durP2;ratioP2;P2;SDS_P1;SDS_P2;PMS_P1;PMS_P2;Temp;Humidity;BMP_temperature;BMP_pressure;BME280_temperature;BME280_humidity;BME280_pressure;Samples;Min_cycle;Max_cycle;Signal;HPM_P1;HPM_P2
2021/12/10 00:00:30;;;;;;;20.20;15.90;;;8.60;93.80;;;;;;4993413;28;20038;-71
2021/12/10 00:02:56;;;;;;;23.73;16.73;;;8.60;94.20;;;;;;4993533;28;20026;-71
2021/12/10 00:05:32;;;;;;;24.30;16.27;;;8.60;94.00;;;;;;4993431;28;20380;-70
2021/12/10 00:07:59;;;;;;;25.58;17.00;;;8.60;93.20;;;;;;4993210;28;20029;-73
2021/12/10 00:10:30;;;;;;;24.80;16.23;;;8.60;94.20;;;;;;4993405;28;20057;-69
2021/12/10 00:12:57;;;;;;;25.52;16.50;;;8.50;94.10;;;;;;4975915;28;20031;-71
2021/12/10 00:15:25;;;;;;;24.35;16.27;;;8.60;94.30;;;;;;4993507;28;20065;-72
2021/12/10 00:17:52;;;;;;;28.38;16.70;;;8.50;94.40;;;;;;4993407;28;20433;-70
2021/12/10 00:20:20;;;;;;;22.00;15.93;;;8.40;94.20;;;;;;4993163;28;20038;-71
2021/12/10 00:22:55;;;;;;;23.95;15.73;;;8.30;94.40;;;;;;4993217;28;20029;-71
2021/12/10 00:25:26;;;;;;;23.20;15.60;;;8.30;94.30;;;;;;4993147;28;20023;-69
2021/12/10 00:27:54;;;;;;;22.13;15.57;;;8.10;94.30;;;;;;4992989;28;20388;-74
2021/12/10 00:30:26;;;;;;;21.38;15.25;;;8.10;94.50;;;;;;4975859;28;20034;-74
2021/12/10 00:33:20;;;;;;;26.63;15.98;;;8.00;94.50;;;;;;4993324;28;20035;-70
2021/12/10 00:35:46;;;;;;;21.42;15.73;;;8.00;94.60;;;;;;4993229;28;20029;-70
2021/12/10 00:38:12;;;;;;;19.98;14.30;;;8.00;94.60;;;;;;4995229;28;20387;-71
2021/12/10 00:40:38;;;;;;;21.95;14.23;;;8.00;94.60;;;;;;4996797;28;20042;-70
2021/12/10 00:43:04;;;;;;;20.45;13.88;;;7.90;94.80;;;;;;4996850;28;20018;-70
2021/12/10 00:45:30;;;;;;;21.05;14.00;;;7.90;94.80;;;;;;4996836;28;20476;-71
2021/12/10 00:47:56;;;;;;;22.88;12.93;;;7.90;94.80;;;;;;4996710;28;20482;-71
2021/12/10 00:50:34;;;;;;;19.65;13.77;;;7.90;94.90;;;;;;4996774;28;20523;-71
2021/12/10 00:53:00;;;;;;;21.42;13.20;;;7.90;95.00;;;;;;4996735;28;20026;-71
2021/12/10 00:55:26;;;;;;;22.00;14.00;;;7.90;94.80;;;;;;4996711;28;20460;-70
2021/12/10 00:57:53;;;;;;;20.42;13.98;;;7.90;95.00;;;;;;4996652;28;20082;-72
2021/12/10 01:00:27;;;;;;;19.40;13.05;;;7.90;95.10;;;;;;4996639;28;20038;-76
2021/12/10 01:02:53;;;;;;;20.88;13.13;;;7.80;95.00;;;;;;4996739;28;20046;-71
2021/12/10 01:05:21;;;;;;;20.27;13.20;;;7.80;95.00;;;;;;4996612;28;20071;-69
2021/12/10 01:07:47;;;;;;;19.42;13.05;;;7.80;95.10;;;;;;4996344;28;20034;-71
2021/12/10 01:10:30;;;;;;;22.92;14.35;;;7.80;95.00;;;;;;4996605;28;20034;-70
2021/12/10 01:12:59;;;;;;;22.02;12.93;;;7.80;95.00;;;;;;4996444;28;20030;-69
2021/12/10 01:24:34;;;;;;;19.48;13.07;;;7.90;95.30;;;;;;4996315;28;20041;-70
2021/12/10 01:27:11;;;;;;;21.67;12.52;;;8.00;95.40;;;;;;4996276;28;20057;-69
2021/12/10 01:29:40;;;;;;;19.42;12.68;;;8.00;95.20;;;;;;4996178;28;20030;-70
2021/12/10 01:32:09;;;;;;;18.67;12.77;;;7.90;95.20;;;;;;4996369;28;20481;-70
2021/12/10 01:34:35;;;;;;;22.55;14.07;;;7.90;95.20;;;;;;4997444;28;20054;-71
2021/12/10 01:37:02;;;;;;;19.83;12.48;;;7.90;95.20;;;;;;5001743;28;20468;-70
2021/12/10 01:39:33;;;;;;;19.63;14.18;;;7.80;95.20;;;;;;5006295;28;20483;-70
2021/12/10 01:42:13;;;;;;;19.25;13.18;;;7.70;95.40;;;;;;5004622;28;20023;-72
2021/12/10 01:44:43;;;;;;;18.38;12.32;;;7.70;95.40;;;;;;4996153;28;20023;-71
2021/12/10 01:47:11;;;;;;;19.98;12.88;;;7.70;95.60;;;;;;4995818;28;20018;-71
2021/12/10 01:49:37;;;;;;;16.25;12.13;;;7.60;95.50;;;;;;4994777;28;20131;-71
2021/12/10 01:52:05;;;;;;;16.90;12.15;;;7.50;95.50;;;;;;4995653;28;20034;-71
2021/12/10 01:54:37;;;;;;;19.50;12.18;;;7.40;95.60;;;;;;4995730;28;20030;-71
2021/12/10 01:57:04;;;;;;;18.27;13.23;;;7.40;95.40;;;;;;4995579;28;20112;-71
2021/12/10 01:59:33;;;;;;;18.42;12.25;;;7.40;95.60;;;;;;4995622;28;20038;-70
2021/12/10 02:02:02;;;;;;;19.67;12.93;;;7.40;95.70;;;;;;4995455;28;20038;-70
2021/12/10 02:04:32;;;;;;;17.42;13.60;;;7.30;95.60;;;;;;4995445;28;20040;-71
2021/12/10 02:07:00;;;;;;;16.85;12.13;;;7.30;95.70;;;;;;4995605;28;20490;-71
2021/12/10 02:09:26;;;;;;;16.67;11.98;;;7.30;95.80;;;;;;4995547;28;20044;-71
2021/12/10 02:11:51;;;;;;;19.92;12.55;;;7.30;95.80;;;;;;4995468;28;20375;-71
2021/12/10 02:14:18;;;;;;;17.40;11.45;;;7.30;95.90;;;;;;4995288;28;20336;-70
2021/12/10 02:16:44;;;;;;;18.95;12.18;;;7.30;95.70;;;;;;4995273;28;20353;-71
2021/12/10 02:19:12;;;;;;;16.02;11.05;;;7.30;95.70;;;;;;4995131;28;20058;-70
2021/12/10 02:21:39;;;;;;;17.35;12.20;;;7.30;95.70;;;;;;4995219;28;20026;-70
2021/12/10 02:24:07;;;;;;;16.17;11.23;;;7.30;95.70;;;;;;4995300;28;20029;-71
2021/12/10 02:26:39;;;;;;;16.40;11.35;;;7.30;95.70;;;;;;4995259;28;20030;-71
2021/12/10 02:29:08;;;;;;;16.63;11.70;;;7.20;95.50;;;;;;4995021;28;20070;-71
2021/12/10 02:31:35;;;;;;;14.77;11.50;;;7.10;95.60;;;;;;4995006;28;20369;-72
2021/12/10 02:34:02;;;;;;;17.20;11.27;;;7.10;95.70;;;;;;4995095;28;20065;-74
2021/12/10 02:36:29;;;;;;;16.13;11.15;;;7.10;95.70;;;;;;4994962;28;20119;-73
2021/12/10 02:38:55;;;;;;;14.90;10.70;;;7.10;95.60;;;;;;4994753;28;20479;-73
2021/12/10 02:41:26;;;;;;;15.60;10.55;;;7.10;95.60;;;;;;4994915;28;20034;-71
2021/12/10 02:43:53;;;;;;;14.40;9.80;;;7.10;95.60;;;;;;4994872;28;20045;-73
2021/12/10 02:46:19;;;;;;;14.35;9.75;;;7.10;95.50;;;;;;4995005;28;20153;-70
2021/12/10 02:48:45;;;;;;;14.93;10.48;;;7.00;95.60;;;;;;4977158;28;20563;-71
2021/12/10 02:51:11;;;;;;;13.32;9.63;;;7.10;95.50;;;;;;4994879;28;20070;-70
2021/12/10 02:53:42;;;;;;;15.18;10.32;;;7.10;95.40;;;;;;4994718;28;20034;-71
2021/12/10 02:56:10;;;;;;;14.05;10.30;;;7.00;95.50;;;;;;4994619;28;20026;-74
2021/12/10 02:58:36;;;;;;;16.48;10.63;;;7.00;95.60;;;;;;4994493;28;20026;-70
2021/12/10 03:01:08;;;;;;;15.07;10.68;;;7.00;95.50;;;;;;4994484;28;20038;-71
2021/12/10 03:03:36;;;;;;;14.68;10.68;;;6.90;95.40;;;;;;4994670;28;20484;-70
2021/12/10 03:06:08;;;;;;;14.13;10.70;;;6.80;95.40;;;;;;4994503;28;20472;-70
2021/12/10 03:08:34;;;;;;;14.07;11.38;;;6.80;95.40;;;;;;4994181;28;20404;-70
2021/12/10 03:11:00;;;;;;;16.55;11.45;;;6.80;95.50;;;;;;4994391;28;20037;-71
2021/12/10 03:13:26;;;;;;;14.23;9.82;;;6.70;95.60;;;;;;4994324;28;20057;-71
2021/12/10 03:15:52;;;;;;;15.45;10.40;;;6.80;95.70;;;;;;4994326;28;20041;-70
2021/12/10 03:18:19;;;;;;;15.73;10.65;;;6.70;95.50;;;;;;4994241;28;20130;-71
2021/12/10 03:20:46;;;;;;;16.20;11.27;;;6.80;95.80;;;;;;4994322;28;20049;-71
2021/12/10 03:23:12;;;;;;;17.15;10.88;;;6.80;95.60;;;;;;4994203;28;20026;-71
2021/12/10 03:25:39;;;;;;;15.40;10.98;;;6.90;95.60;;;;;;4994102;28;20106;-70
2021/12/10 03:28:05;;;;;;;13.98;10.85;;;6.90;95.70;;;;;;4994149;28;20027;-70
2021/12/10 03:30:36;;;;;;;16.52;10.70;;;6.90;95.60;;;;;;4994154;28;20610;-72
2021/12/10 03:33:02;;;;;;;12.00;9.95;;;6.90;95.50;;;;;;4976959;28;20033;-71
2021/12/10 03:35:40;;;;;;;14.20;10.50;;;6.90;95.50;;;;;;4976583;28;20106;-70
2021/12/10 03:38:07;;;;;;;17.80;10.65;;;6.90;95.60;;;;;;4993985;28;20545;-70
2021/12/10 03:40:33;;;;;;;16.35;10.65;;;6.90;95.70;;;;;;4976566;28;20057;-73
2021/12/10 03:42:59;;;;;;;15.90;10.00;;;6.90;95.60;;;;;;4994002;28;20120;-71
2021/12/10 03:45:31;;;;;;;13.15;10.23;;;6.90;95.60;;;;;;4994028;28;20033;-72
2021/12/10 03:47:58;;;;;;;13.77;10.45;;;6.80;95.50;;;;;;4993863;28;20113;-73
2021/12/10 03:50:30;;;;;;;14.07;10.25;;;6.80;95.40;;;;;;4993793;28;20404;-72
2021/12/10 03:52:55;;;;;;;14.30;10.55;;;6.80;95.60;;;;;;4993842;28;20030;-71
2021/12/10 03:55:23;;;;;;;14.18;10.43;;;6.70;95.50;;;;;;4976353;28;20026;-70
2021/12/10 03:57:50;;;;;;;14.27;10.80;;;6.70;95.70;;;;;;4993583;28;20066;-71
2021/12/10 04:00:19;;;;;;;14.60;10.18;;;6.70;95.70;;;;;;4976229;28;20084;-74
2021/12/10 04:02:46;;;;;;;17.05;10.70;;;6.70;95.70;;;;;;4976096;28;20026;-70
2021/12/10 04:05:12;;;;;;;13.13;10.10;;;6.70;95.60;;;;;;4993762;28;20132;-71
2021/12/10 04:07:38;;;;;;;16.88;10.75;;;6.80;95.70;;;;;;4993415;28;20034;-70
2021/12/10 04:10:07;;;;;;;13.57;10.13;;;6.70;95.60;;;;;;4976176;28;20027;-76
2021/12/10 04:12:32;;;;;;;14.65;9.55;;;6.70;95.60;;;;;;4975651;28;20029;-75
2021/12/10 04:14:58;;;;;;;14.85;9.90;;;6.80;95.50;;;;;;4993742;28;20022;-70
2021/12/10 04:17:24;;;;;;;12.57;9.32;;;6.70;95.40;;;;;;4975917;28;20030;-69
2021/12/10 04:19:51;;;;;;;14.50;9.95;;;6.70;95.40;;;;;;4959968;28;20031;-77
2021/12/10 04:22:18;;;;;;;15.15;10.15;;;6.60;95.30;;;;;;4993555;28;20464;-76
2021/12/10 04:24:44;;;;;;;12.38;10.20;;;6.60;95.60;;;;;;4993388;28;20045;-70
2021/12/10 04:27:12;;;;;;;13.98;9.85;;;6.60;95.50;;;;;;4993457;28;20324;-71
2021/12/10 04:29:38;;;;;;;13.52;10.25;;;6.50;95.50;;;;;;4993292;28;20084;-70
2021/12/10 04:32:05;;;;;;;14.32;10.13;;;6.50;95.70;;;;;;4993272;28;20026;-70
2021/12/10 04:34:31;;;;;;;16.60;10.23;;;6.50;95.60;;;;;;4975927;28;20038;-71
2021/12/10 04:36:59;;;;;;;14.10;10.10;;;6.50;95.70;;;;;;4993314;28;20049;-71
2021/12/10 04:39:26;;;;;;;14.27;10.07;;;6.50;95.50;;;;;;4993040;28;20072;-72
2021/12/10 04:41:52;;;;;;;13.55;10.13;;;6.50;95.50;;;;;;4975743;28;20030;-72
2021/12/10 04:44:18;;;;;;;12.98;10.27;;;6.40;95.60;;;;;;4993149;28;20073;-71
2021/12/10 04:46:44;;;;;;;13.55;9.50;;;6.50;95.70;;;;;;4993152;28;20022;-71
2021/12/10 04:49:13;;;;;;;13.40;10.40;;;6.40;95.60;;;;;;4975427;28;20035;-70
2021/12/10 04:51:49;;;;;;;14.82;11.40;;;6.40;95.70;;;;;;4975734;28;20061;-71
2021/12/10 04:54:17;;;;;;;14.48;10.73;;;6.40;95.70;;;;;;4993309;28;20026;-70
2021/12/10 04:56:44;;;;;;;15.40;11.18;;;6.30;95.70;;;;;;4993029;28;20029;-70
2021/12/10 04:59:13;;;;;;;15.45;9.68;;;6.40;95.60;;;;;;4992999;28;20030;-72
2021/12/10 05:01:41;;;;;;;16.98;11.35;;;6.40;95.90;;;;;;4993171;28;20105;-72
2021/12/10 05:04:07;;;;;;;19.10;11.63;;;6.40;95.70;;;;;;4992950;28;20101;-72
2021/12/10 05:06:34;;;;;;;15.38;11.30;;;6.50;95.40;;;;;;4993017;28;20065;-71
2021/12/10 05:09:01;;;;;;;15.00;11.50;;;6.50;95.80;;;;;;4992831;28;20062;-71
2021/12/10 05:11:26;;;;;;;14.15;10.88;;;6.50;95.70;;;;;;4992793;28;20033;-70
2021/12/10 05:13:52;;;;;;;16.98;11.13;;;6.50;95.60;;;;;;4992779;28;20023;-71
2021/12/10 05:16:24;;;;;;;18.17;13.85;;;6.50;95.60;;;;;;4992755;28;20085;-71
2021/12/10 05:18:56;;;;;;;15.27;11.50;;;6.50;95.60;;;;;;4992686;28;20428;-70
2021/12/10 05:21:23;;;;;;;17.30;11.45;;;6.50;95.60;;;;;;4976302;28;20038;-71
2021/12/10 05:23:49;;;;;;;14.18;11.05;;;6.50;95.50;;;;;;4975265;28;20023;-70
2021/12/10 05:26:14;;;;;;;14.95;10.40;;;6.50;95.50;;;;;;4996203;28;20029;-70
2021/12/10 05:28:40;;;;;;;14.45;10.82;;;6.40;95.50;;;;;;4996383;28;20018;-70
2021/12/10 05:31:06;;;;;;;14.75;11.35;;;6.40;95.60;;;;;;4996274;28;20037;-74
2021/12/10 05:33:32;;;;;;;15.23;10.77;;;6.50;96.00;;;;;;4978730;28;20027;-70
2021/12/10 05:36:01;;;;;;;16.13;11.13;;;6.50;95.80;;;;;;4996425;28;20031;-70
2021/12/10 05:38:27;;;;;;;15.05;11.35;;;6.50;95.90;;;;;;4995935;28;20467;-69
2021/12/10 05:40:54;;;;;;;17.77;11.15;;;6.50;95.90;;;;;;4978745;28;20555;-70
2021/12/10 05:43:21;;;;;;;18.63;11.75;;;6.50;95.90;;;;;;4996134;28;20040;-69
2021/12/10 05:45:48;;;;;;;15.90;11.57;;;6.50;96.20;;;;;;4996228;28;20030;-71
2021/12/10 05:48:15;;;;;;;15.38;11.65;;;6.50;95.90;;;;;;4996368;28;20026;-72
2021/12/10 05:50:42;;;;;;;15.13;11.75;;;6.50;96.40;;;;;;4995900;28;20412;-70
2021/12/10 05:53:08;;;;;;;17.13;11.85;;;6.40;95.80;;;;;;5006468;28;20062;-71
2021/12/10 05:55:36;;;;;;;16.33;11.77;;;6.40;95.90;;;;;;5000963;28;20565;-70
2021/12/10 05:58:03;;;;;;;18.48;12.77;;;6.40;96.00;;;;;;5002909;28;20034;-72
2021/12/10 06:00:33;;;;;;;17.45;12.52;;;6.40;96.20;;;;;;4999093;28;20128;-74
2021/12/10 06:02:59;;;;;;;15.18;11.63;;;6.40;95.90;;;;;;4995704;28;20088;-71
2021/12/10 06:05:26;;;;;;;19.42;12.15;;;6.40;96.10;;;;;;4995855;28;20030;-72
2021/12/10 06:07:53;;;;;;;17.73;11.82;;;6.40;96.30;;;;;;4995564;28;20091;-71
2021/12/10 06:10:20;;;;;;;18.02;12.50;;;6.30;96.30;;;;;;4995541;28;20022;-71
2021/12/10 06:12:47;;;;;;;17.08;11.77;;;6.30;96.40;;;;;;4995714;28;20384;-71
2021/12/10 06:15:15;;;;;;;16.85;12.20;;;6.30;96.70;;;;;;4995614;28;20464;-71
2021/12/10 06:17:42;;;;;;;17.13;11.80;;;6.30;96.60;;;;;;4995507;28;20052;-70
2021/12/10 06:20:13;;;;;;;18.90;12.70;;;6.30;96.50;;;;;;4995285;28;20042;-74
2021/12/10 06:22:38;;;;;;;21.35;12.00;;;6.30;96.60;;;;;;4995455;28;20019;-71
2021/12/10 06:25:06;;;;;;;16.98;12.65;;;6.30;96.40;;;;;;4995469;28;20129;-70
2021/12/10 06:27:32;;;;;;;21.05;12.52;;;6.30;96.40;;;;;;4995069;28;20511;-71
2021/12/10 06:29:58;;;;;;;18.75;12.68;;;6.30;96.40;;;;;;4995065;28;20018;-71
2021/12/10 06:32:26;;;;;;;20.42;12.75;;;6.30;96.70;;;;;;4995031;28;20449;-74
2021/12/10 06:34:52;;;;;;;18.85;12.90;;;6.30;96.50;;;;;;4994401;28;20511;-71
2021/12/10 06:37:18;;;;;;;17.88;12.35;;;6.30;96.40;;;;;;4994577;28;20022;-72
2021/12/10 06:39:44;;;;;;;18.70;13.45;;;6.30;96.40;;;;;;4994359;28;20441;-70
2021/12/10 06:42:10;;;;;;;21.88;13.43;;;6.30;96.50;;;;;;4994359;28;20102;-71
2021/12/10 06:44:36;;;;;;;17.92;13.52;;;6.30;96.40;;;;;;4977345;28;20132;-72
2021/12/10 06:47:05;;;;;;;22.40;13.68;;;6.30;96.40;;;;;;4976690;28;20104;-72
2021/12/10 06:49:32;;;;;;;17.35;12.80;;;6.30;96.60;;;;;;4994422;28;20038;-73
2021/12/10 06:52:00;;;;;;;25.67;13.25;;;6.30;96.00;;;;;;4994959;28;20030;-80
2021/12/10 06:54:26;;;;;;;19.95;12.55;;;6.30;96.00;;;;;;4995215;28;20021;-74
2021/12/10 06:56:53;;;;;;;19.20;13.52;;;6.20;95.70;;;;;;4994401;28;20049;-72
2021/12/10 06:59:19;;;;;;;20.70;15.18;;;6.20;95.80;;;;;;4994599;28;20169;-71
2021/12/10 07:01:44;;;;;;;31.73;21.75;;;6.30;96.40;;;;;;4993955;28;20042;-73
2021/12/10 07:04:13;;;;;;;26.73;17.83;;;6.20;96.00;;;;;;4994556;28;20026;-72
2021/12/10 07:06:43;;;;;;;22.50;15.43;;;6.20;96.20;;;;;;4994650;28;20097;-72
2021/12/10 07:09:14;;;;;;;23.02;16.35;;;6.30;96.20;;;;;;4976574;28;20113;-77
2021/12/10 07:11:40;;;;;;;17.08;12.82;;;6.40;96.10;;;;;;4994279;28;20053;-73
2021/12/10 07:14:05;;;;;;;20.95;14.05;;;6.50;96.10;;;;;;4993674;28;20030;-73
2021/12/10 07:16:32;;;;;;;23.52;16.85;;;6.50;96.10;;;;;;4993797;28;20053;-74
2021/12/10 07:19:00;;;;;;;24.48;16.70;;;6.60;95.80;;;;;;4993707;28;20114;-77
2021/12/10 07:21:29;;;;;;;25.30;16.83;;;6.60;95.80;;;;;;4982316;28;20049;-73
2021/12/10 07:23:55;;;;;;;25.42;16.27;;;6.70;95.60;;;;;;4991157;28;20035;-70
2021/12/10 07:26:21;;;;;;;22.58;13.13;;;6.70;95.40;;;;;;4994080;28;20111;-70
2021/12/10 07:28:47;;;;;;;22.35;13.57;;;6.70;95.40;;;;;;4985649;28;20109;-70
2021/12/10 07:31:13;;;;;;;23.85;14.70;;;6.80;95.30;;;;;;4974874;28;20038;-71
2021/12/10 07:33:40;;;;;;;29.55;13.93;;;6.80;95.30;;;;;;4974220;28;20046;-70
2021/12/10 07:36:07;;;;;;;31.33;14.07;;;6.80;95.20;;;;;;4956997;28;20034;-72
2021/12/10 07:38:33;;;;;;;19.65;13.35;;;6.90;95.30;;;;;;4973905;28;20460;-71
2021/12/10 07:40:59;;;;;;;23.85;13.13;;;7.00;95.10;;;;;;4956741;28;20034;-71
2021/12/10 07:43:26;;;;;;;21.80;13.38;;;7.00;95.10;;;;;;4956958;28;20093;-71
2021/12/10 07:45:53;;;;;;;18.35;12.43;;;7.10;94.90;;;;;;4974158;28;20533;-71
2021/12/10 07:48:20;;;;;;;18.40;12.70;;;7.20;94.90;;;;;;4973762;28;20035;-70
2021/12/10 07:50:57;;;;;;;19.70;11.82;;;7.10;94.60;;;;;;4976266;28;20551;-70
2021/12/10 07:53:25;;;;;;;23.35;13.02;;;7.20;94.60;;;;;;4974006;28;20026;-70
2021/12/10 07:55:51;;;;;;;20.98;11.93;;;7.30;94.50;;;;;;4974063;28;20031;-71
2021/12/10 07:58:18;;;;;;;21.67;12.13;;;7.40;94.40;;;;;;4956616;28;20035;-70
2021/12/10 08:00:45;;;;;;;20.17;11.48;;;7.40;94.30;;;;;;4957165;28;20049;-71
2021/12/10 08:03:12;;;;;;;24.35;11.43;;;7.30;94.40;;;;;;4980325;28;20542;-70
2021/12/10 08:05:39;;;;;;;15.75;10.20;;;7.20;94.30;;;;;;4993525;28;20447;-69
2021/12/10 08:08:06;;;;;;;19.45;11.23;;;7.10;94.20;;;;;;4993373;28;20437;-70
2021/12/10 08:10:34;;;;;;;22.00;11.98;;;7.00;94.30;;;;;;4993036;28;20030;-69
2021/12/10 08:13:00;;;;;;;17.70;11.27;;;7.00;94.40;;;;;;4993317;28;20030;-71
2021/12/10 08:15:26;;;;;;;16.77;10.35;;;7.00;94.20;;;;;;4976017;28;20476;-71
2021/12/10 08:17:53;;;;;;;16.50;10.30;;;7.10;94.30;;;;;;4993410;28;20031;-71
2021/12/10 08:20:23;;;;;;;25.55;10.32;;;7.10;94.20;;;;;;4993368;28;20034;-71
2021/12/10 08:22:51;;;;;;;23.40;10.77;;;7.10;94.00;;;;;;4993302;28;20038;-71
2021/12/10 08:25:19;;;;;;;31.92;12.02;;;7.20;94.10;;;;;;4975855;28;20031;-71
2021/12/10 08:27:45;;;;;;;27.05;11.18;;;7.20;94.00;;;;;;4975413;28;20033;-72
2021/12/10 08:30:13;;;;;;;24.77;11.60;;;7.20;93.90;;;;;;4993548;28;20026;-71
2021/12/10 08:32:41;;;;;;;25.90;11.98;;;7.20;93.90;;;;;;4993283;28;20490;-71
2021/12/10 08:35:11;;;;;;;29.10;11.82;;;7.30;94.20;;;;;;4993223;28;20046;-71
2021/12/10 08:37:38;;;;;;;29.08;11.38;;;7.30;94.00;;;;;;4993117;28;20106;-71
2021/12/10 08:40:06;;;;;;;25.08;10.80;;;7.30;93.90;;;;;;4993134;28;20122;-72
2021/12/10 08:42:32;;;;;;;31.42;12.00;;;7.30;93.50;;;;;;4993411;28;20089;-72
2021/12/10 08:44:58;;;;;;;26.48;11.55;;;7.40;93.70;;;;;;4993354;28;20412;-71
2021/12/10 08:47:23;;;;;;;28.73;11.60;;;7.60;93.70;;;;;;4992850;28;20037;-71
2021/12/10 08:49:49;;;;;;;22.85;10.90;;;7.70;93.50;;;;;;4993054;28;20425;-70
2021/12/10 08:52:18;;;;;;;28.33;11.18;;;7.80;93.30;;;;;;4993123;28;20045;-71
2021/12/10 08:54:45;;;;;;;24.13;11.00;;;8.00;93.50;;;;;;4993156;28;20058;-72
2021/12/10 08:57:12;;;;;;;26.80;10.35;;;8.10;93.20;;;;;;4992912;28;20081;-70
2021/12/10 08:59:38;;;;;;;31.60;10.50;;;8.30;93.10;;;;;;4995770;28;20077;-71
2021/12/10 09:02:10;;;;;;;29.38;9.55;;;8.30;93.00;;;;;;4996676;28;20032;-71
2021/12/10 09:04:36;;;;;;;18.88;9.32;;;8.40;92.80;;;;;;4997034;28;20092;-70
2021/12/10 09:07:07;;;;;;;17.75;9.60;;;8.50;92.40;;;;;;4979303;28;20034;-72
2021/12/10 09:09:35;;;;;;;21.10;10.02;;;8.50;92.70;;;;;;4979402;28;20029;-71
2021/12/10 09:12:07;;;;;;;17.83;9.60;;;8.60;92.80;;;;;;4996746;28;20555;-72
2021/12/10 09:14:44;;;;;;;17.92;9.75;;;8.70;92.50;;;;;;4996326;28;20383;-70
2021/12/10 09:17:14;;;;;;;18.55;9.65;;;8.70;92.60;;;;;;4996264;28;20384;-71
2021/12/10 09:19:42;;;;;;;17.20;9.68;;;8.80;92.80;;;;;;4996419;28;20041;-71
2021/12/10 09:22:08;;;;;;;14.10;9.02;;;8.90;92.70;;;;;;4996396;28;20030;-70
2021/12/10 09:24:40;;;;;;;15.05;8.98;;;9.00;92.40;;;;;;4978767;28;20479;-71
2021/12/10 09:27:07;;;;;;;19.85;8.38;;;9.00;92.20;;;;;;4996524;28;20597;-71
2021/12/10 09:29:37;;;;;;;17.10;10.10;;;9.10;92.20;;;;;;4996200;28;20022;-73
2021/12/10 09:32:08;;;;;;;18.27;10.35;;;9.10;92.30;;;;;;4996152;28;20122;-71
2021/12/10 09:34:34;;;;;;;15.48;9.57;;;9.20;91.00;;;;;;4978619;28;20022;-71
2021/12/10 09:37:00;;;;;;;25.55;9.77;;;9.30;91.70;;;;;;4978603;28;20109;-70
2021/12/10 09:39:26;;;;;;;15.60;9.02;;;9.40;91.80;;;;;;4996169;28;20507;-69
2021/12/10 09:41:54;;;;;;;16.08;9.35;;;9.40;91.20;;;;;;4995944;28;20026;-71
2021/12/10 09:44:20;;;;;;;21.00;9.73;;;9.50;91.60;;;;;;4996123;28;20101;-71
2021/12/10 09:46:50;;;;;;;17.35;9.10;;;9.60;91.30;;;;;;4978709;28;20027;-71
2021/12/10 09:49:16;;;;;;;18.35;9.05;;;9.70;91.00;;;;;;4995614;28;20066;-70
2021/12/10 09:51:48;;;;;;;19.40;9.25;;;9.70;90.90;;;;;;4995811;28;20041;-70
2021/12/10 09:54:18;;;;;;;17.75;8.70;;;9.80;91.00;;;;;;4995934;28;20037;-72
2021/12/10 09:56:56;;;;;;;15.63;8.82;;;9.90;90.80;;;;;;4996061;28;20033;-71
2021/12/10 09:59:22;;;;;;;17.85;9.13;;;10.10;89.10;;;;;;4995877;28;20033;-71
2021/12/10 10:01:54;;;;;;;18.10;9.07;;;10.10;89.60;;;;;;4997349;28;20443;-70
2021/12/10 10:04:23;;;;;;;16.95;8.57;;;10.20;89.40;;;;;;5003712;28;20026;-69
2021/12/10 10:07:05;;;;;;;20.58;8.10;;;10.20;88.80;;;;;;5004903;28;20022;-70
2021/12/10 10:09:31;;;;;;;21.15;9.40;;;10.20;88.40;;;;;;4995597;28;20026;-71
2021/12/10 10:12:05;;;;;;;16.27;9.18;;;10.20;88.50;;;;;;4995102;28;20038;-71
2021/12/10 10:14:32;;;;;;;;;;;10.20;88.80;;;;;;4996090;28;20018;-71
2021/12/10 10:16:58;;;;;;;18.13;8.63;;;10.20;88.20;;;;;;4995437;28;19910;-70
2021/12/10 10:19:25;;;;;;;17.45;9.77;;;10.10;88.70;;;;;;4995117;28;20039;-72
2021/12/10 10:21:56;;;;;;;14.13;8.40;;;10.10;88.50;;;;;;4995508;28;20015;-71
2021/12/10 10:24:25;;;;;;;16.63;8.43;;;10.10;88.60;;;;;;4977476;28;20145;-71
2021/12/10 10:26:56;;;;;;;17.30;9.30;;;10.10;89.00;;;;;;4994951;28;20025;-70
2021/12/10 10:29:26;;;;;;;21.52;8.63;;;10.10;89.00;;;;;;4995015;28;20029;-70
2021/12/10 10:32:08;;;;;;;30.67;15.07;;;10.10;89.20;;;;;;4995359;28;20034;-72
2021/12/10 10:34:34;;;;;;;20.77;9.82;;;10.20;89.80;;;;;;4977360;28;20027;-70
2021/12/10 10:37:00;;;;;;;30.27;10.35;;;10.30;89.30;;;;;;4995101;28;20037;-71
2021/12/10 10:39:36;;;;;;;22.75;8.48;;;10.40;89.00;;;;;;4995393;28;20031;-73
2021/12/10 10:42:05;;;;;;;15.93;8.23;;;10.50;88.90;;;;;;4977578;28;20034;-71
2021/12/10 10:44:31;;;;;;;20.52;8.57;;;10.60;88.70;;;;;;4977424;28;20055;-71
2021/12/10 10:46:59;;;;;;;19.63;9.10;;;10.70;88.60;;;;;;4994668;28;20150;-71
2021/12/10 10:49:39;;;;;;;18.45;8.63;;;10.80;88.30;;;;;;4977140;28;20086;-71
2021/12/10 10:52:32;;;;;;;33.00;9.32;;;10.80;87.10;;;;;;4994237;28;20048;-71
2021/12/10 10:55:14;;;;;;;16.77;8.60;;;10.90;87.20;;;;;;4994706;28;20023;-71
2021/12/10 10:57:48;;;;;;;14.82;7.72;;;11.00;87.50;;;;;;4994396;28;20036;-72
2021/12/10 11:00:39;;;;;;;16.33;7.13;;;11.10;86.80;;;;;;4995071;28;20161;-72
2021/12/10 11:03:14;;;;;;;13.82;6.13;;;11.10;85.80;;;;;;4994731;28;20152;-72
2021/12/10 11:05:51;;;;;;;14.48;6.00;;;11.10;86.00;;;;;;4976662;28;20122;-70
2021/12/10 11:08:49;;;;;;;14.68;5.93;;;11.10;86.30;;;;;;4994798;28;20376;-72
2021/12/10 11:11:21;;;;;;;12.38;6.53;;;11.10;86.70;;;;;;4994417;28;20022;-70
2021/12/10 11:13:59;;;;;;;11.48;5.80;;;11.10;87.60;;;;;;4976784;28;20041;-71
2021/12/10 11:16:30;;;;;;;16.67;5.28;;;11.10;88.10;;;;;;4994561;28;20419;-71
2021/12/10 11:19:09;;;;;;;13.68;4.30;;;11.10;88.10;;;;;;4993901;28;20713;-71
2021/12/10 11:21:49;;;;;;;8.93;3.30;;;11.20;88.40;;;;;;4976704;28;20476;-71
2021/12/10 11:24:37;;;;;;;13.90;6.18;;;11.20;87.30;;;;;;4994187;28;20483;-70
2021/12/10 11:27:10;;;;;;;18.55;10.63;;;11.20;87.30;;;;;;4993968;28;20061;-71
2021/12/10 11:29:48;;;;;;;12.27;6.03;;;11.30;87.70;;;;;;4993696;28;20018;-70
2021/12/10 11:32:34;;;;;;;8.77;4.13;;;11.40;86.50;;;;;;4993479;28;20038;-72
2021/12/10 11:35:35;;;;;;;8.70;3.30;;;11.50;86.20;;;;;;4975890;28;20030;-72
2021/12/10 11:38:19;;;;;;;8.23;2.90;;;11.50;85.80;;;;;;4952238;28;20359;-70
2021/12/10 11:40:53;;;;;;;6.57;2.53;;;11.60;84.60;;;;;;4993764;28;20034;-71
2021/12/10 11:43:54;;;;;;;9.68;3.28;;;11.70;84.10;;;;;;4993752;28;20053;-71
2021/12/10 11:49:11;;;;;;;6.35;2.90;;;11.70;84.20;;;;;;5057468;22;20439;-74
2021/12/10 11:51:43;;;;;;;7.05;2.67;;;11.70;83.30;;;;;;5053584;28;20028;-73
2021/12/10 11:54:24;;;;;;;7.60;2.75;;;11.70;83.60;;;;;;5034739;28;20029;-72
2021/12/10 11:57:01;;;;;;;15.23;3.13;;;11.70;82.10;;;;;;5052807;28;20052;-73
2021/12/10 11:59:50;;;;;;;7.25;3.10;;;11.70;82.70;;;;;;5032715;28;20041;-72
2021/12/10 12:02:22;;;;;;;5.18;2.80;;;11.70;81.60;;;;;;5032873;28;20053;-71
2021/12/10 12:05:00;;;;;;;6.43;2.53;;;11.60;81.60;;;;;;5014888;28;20064;-71
2021/12/10 12:07:45;;;;;;;9.02;2.80;;;11.60;81.10;;;;;;5032479;28;20025;-72
2021/12/10 12:10:25;;;;;;;4.97;2.70;;;11.60;81.60;;;;;;5032897;28;20025;-74
2021/12/10 12:12:53;;;;;;;4.95;2.50;;;11.50;81.20;;;;;;5033275;28;20179;-73
2021/12/10 12:15:29;;;;;;;6.97;2.35;;;11.50;81.60;;;;;;5033086;28;20032;-73
2021/12/10 12:18:02;;;;;;;7.45;2.55;;;11.50;81.50;;;;;;5032730;28;20056;-75
2021/12/10 12:20:48;;;;;;;7.65;2.50;;;11.50;81.20;;;;;;5032506;28;20360;-74
2021/12/10 12:26:14;;;;;;;7.80;2.47;;;11.50;80.70;;;;;;5032572;28;20052;-73
2021/12/10 12:28:50;;;;;;;7.80;3.33;;;11.40;81.40;;;;;;5032708;28;20022;-74
2021/12/10 12:31:18;;;;;;;5.93;2.30;;;11.30;82.20;;;;;;5032486;28;20087;-72
2021/12/10 12:33:57;;;;;;;8.23;2.08;;;11.20;82.80;;;;;;5034224;28;20327;-74
2021/12/10 12:36:28;;;;;;;10.80;2.53;;;11.20;83.30;;;;;;5036558;28;20044;-75
2021/12/10 12:38:54;;;;;;;7.72;2.80;;;11.20;83.30;;;;;;5018608;28;20025;-74
2021/12/10 12:41:27;;;;;;;9.60;2.83;;;11.10;84.20;;;;;;5036421;28;20167;-74
2021/12/10 12:44:13;;;;;;;5.82;2.38;;;11.10;84.00;;;;;;5036575;28;20018;-75
2021/12/10 12:47:05;;;;;;;6.45;2.67;;;11.10;85.10;;;;;;5036767;28;20025;-74
2021/12/10 12:49:37;;;;;;;6.95;3.03;;;11.10;84.40;;;;;;5036273;28;20050;-72
2021/12/10 12:52:12;;;;;;;5.72;2.72;;;11.10;84.50;;;;;;5036565;28;20159;-72
2021/12/10 12:54:59;;;;;;;8.35;3.05;;;11.00;85.40;;;;;;5036092;28;20435;-74
2021/12/10 12:57:40;;;;;;;9.48;2.97;;;11.00;84.90;;;;;;5036114;28;20018;-76
2021/12/10 13:00:18;;;;;;;10.02;3.20;;;11.00;85.40;;;;;;5018450;28;20073;-75
2021/12/10 13:02:49;;;;;;;10.07;3.13;;;11.00;85.90;;;;;;5036538;28;20086;-75
2021/12/10 13:05:15;;;;;;;26.88;17.52;;;11.00;87.20;;;;;;5036232;28;20029;-75